Terminal Aerodrome Forecast
Issued by NWS

Home | Current Version | Previous Version | Text Only | Print | Product List | Glossary On
Versions: 1 2 3 4 5 6 7 8 9 10 11 12
000
FTUS43 KOAX 211135
TAFCDR
TAF
KCDR 211135Z 2112/2212 23006KT P6SM SCT150 SCT250
     FM211800 26013KT P6SM SCT050 BKN120
     FM212200 30014G22KT P6SM VCSH BKN050 OVC100
     FM220100 28014KT 6SM -RASN BKN030 OVC050=

USA.gov is the U.S. government's official web portal to all federal, state and local government web resources and services.